Time,TemperatureF,DewpointF,PressureIn,WindDirection,WindDirectionDegrees,WindSpeedMPH,WindSpeedGustMPH,Humidity,HourlyPrecipIn,Conditions,Clouds,dailyrainin,SoftwareType,DateUTC
2013-06-20 00:01:00,66.8,65.0,30.04,SSE,167,0.0,0.0,94,0.00,,,0.00,Wunderground v.1.15,2013-06-20 04:01:00,
2013-06-20 00:03:00,66.8,65.0,30.05,SSE,157,0.0,2.0,94,0.00,,,-99.99,WeatherLink 6.0.0,2013-06-20 04:03:00,
2013-06-20 00:05:00,66.8,65.3,30.04,SSE,167,0.0,0.0,95,0.00,,,0.00,Wunderground v.1.15,2013-06-20 04:05:00,
2013-06-20 00:10:00,66.7,65.2,30.04,SSE,167,0.0,0.0,95,0.00,,,0.00,Wunderground v.1.15,2013-06-20 04:10:00,
2013-06-20 00:16:00,66.6,65.1,30.05,SSE,167,0.0,0.0,95,0.00,,,0.00,Wunderground v.1.15,2013-06-20 04:16:00,
2013-06-20 00:21:00,66.5,65.0,30.05,SSE,167,0.0,0.0,95,0.00,,,0.00,Wunderground v.1.15,2013-06-20 04:21:00,
2013-06-20 00:27:00,66.5,65.0,30.05,SSE,167,0.0,0.0,95,0.00,,,0.00,Wunderground v.1.15,2013-06-20 04:27:00,
2013-06-20 00:32:00,66.4,64.9,30.05,SSE,167,0.0,0.0,95,0.00,,,0.00,Wunderground v.1.15,2013-06-20 04:32:00,
2013-06-20 00:37:00,66.3,64.8,30.05,SSE,167,0.0,0.0,95,0.00,,,0.00,Wunderground v.1.15,2013-06-20 04:37:00,
2013-06-20 00:43:00,66.3,64.8,30.05,SSE,167,0.0,0.0,95,0.00,,,0.00,Wunderground v.1.15,2013-06-20 04:43:00,
2013-06-20 00:48:00,66.2,64.7,30.05,SSE,167,0.0,0.0,95,0.00,,,0.00,Wunderground v.1.15,2013-06-20 04:48:00,
2013-06-20 00:54:00,66.1,64.6,30.05,SSE,167,0.0,0.0,95,0.00,,,0.00,Wunderground v.1.15,2013-06-20 04:54:00,
2013-06-20 00:59:00,66.1,64.6,30.05,SSE,167,0.0,0.0,95,0.00,,,0.00,Wunderground v.1.15,2013-06-20 04:59:00,
2013-06-20 01:04:00,66.0,64.5,30.05,SSE,167,0.0,0.0,95,0.00,,,0.00,Wunderground v.1.15,2013-06-20 05:04:00,
2013-06-20 01:09:00,65.9,64.7,30.05,SSE,167,0.0,0.0,96,0.00,,,0.00,Wunderground v.1.15,2013-06-20 05:09:00,
2013-06-20 01:15:00,65.8,64.6,30.05,SSE,167,0.0,0.0,96,0.00,,,0.00,Wunderground v.1.15,2013-06-20 05:15:00,
2013-06-20 01:20:00,65.6,64.4,30.05,SSE,167,0.0,0.0,96,0.00,,,0.00,Wunderground v.1.15,2013-06-20 05:20:00,
2013-06-20 01:26:00,65.5,64.3,30.05,SSE,167,0.0,0.0,96,0.00,,,0.00,Wunderground v.1.15,2013-06-20 05:26:00,
2013-06-20 01:31:00,65.4,64.2,30.05,SSE,167,0.0,0.0,96,0.00,,,0.00,Wunderground v.1.15,2013-06-20 05:31:00,
2013-06-20 01:37:00,65.3,64.1,30.05,SSE,167,0.0,0.0,96,0.00,,,0.00,Wunderground v.1.15,2013-06-20 05:37:00,
2013-06-20 01:42:00,65.2,64.0,30.05,SSE,167,0.0,0.0,96,0.00,,,0.00,Wunderground v.1.15,2013-06-20 05:42:00,
2013-06-20 01:47:00,65.2,64.0,30.05,SSE,167,0.0,0.0,96,0.00,,,0.00,Wunderground v.1.15,2013-06-20 05:47:00,
2013-06-20 01:52:00,65.1,63.9,30.05,SSE,167,0.0,0.0,96,0.00,,,0.00,Wunderground v.1.15,2013-06-20 05:52:00,
2013-06-20 01:58:00,65.0,63.8,30.05,SSE,167,0.0,0.0,96,0.00,,,0.00,Wunderground v.1.15,2013-06-20 05:58:00,
2013-06-20 02:03:00,65.0,63.8,30.05,SSE,167,0.0,0.0,96,0.00,,,0.00,Wunderground v.1.15,2013-06-20 06:03:00,
2013-06-20 02:08:00,65.1,64.2,30.05,SSE,167,0.0,0.0,97,0.00,,,0.00,Wunderground v.1.15,2013-06-20 06:08:00,
2013-06-20 02:13:00,65.2,64.3,30.05,SSE,167,0.0,0.0,97,0.00,,,0.00,Wunderground v.1.15,2013-06-20 06:13:00,
2013-06-20 02:18:00,65.2,64.3,30.05,SSE,167,0.0,0.0,97,0.00,,,0.00,Wunderground v.1.15,2013-06-20 06:18:00,
2013-06-20 02:23:00,65.2,64.3,30.05,SSE,167,0.0,0.0,97,0.00,,,0.00,Wunderground v.1.15,2013-06-20 06:23:00,
2013-06-20 02:28:00,65.2,64.3,30.05,SSE,167,0.0,0.0,97,0.00,,,0.00,Wunderground v.1.15,2013-06-20 06:28:00,
2013-06-20 02:33:00,65.2,64.3,30.05,North,-999,0.0,0.0,97,0.00,,,-99.99,WeatherLink 6.0.0,2013-06-20 06:33:00,
2013-06-20 02:38:00,65.3,64.4,30.05,SSE,167,0.0,0.0,97,0.00,,,0.00,Wunderground v.1.15,2013-06-20 06:38:00,
2013-06-20 02:43:00,65.3,64.4,30.05,SSE,167,0.0,0.0,97,0.00,,,0.00,Wunderground v.1.15,2013-06-20 06:43:00,
2013-06-20 02:48:00,65.2,64.3,30.05,SSE,167,0.0,0.0,97,0.00,,,0.00,Wunderground v.1.15,2013-06-20 06:48:00,
2013-06-20 02:53:00,65.1,64.2,30.05,SSE,167,0.0,0.0,97,0.00,,,0.00,Wunderground v.1.15,2013-06-20 06:53:00,
2013-06-20 02:58:00,65.0,64.1,30.05,SSE,167,0.0,0.0,97,0.00,,,0.00,Wunderground v.1.15,2013-06-20 06:58:00,
2013-06-20 03:03:00,65.0,64.1,30.05,North,-999,0.0,0.0,97,0.00,,,-99.99,WeatherLink 6.0.0,2013-06-20 07:03:00,
2013-06-20 03:08:00,64.9,64.0,30.05,SSE,167,0.0,0.0,97,0.00,,,0.00,Wunderground v.1.15,2013-06-20 07:08:00,
2013-06-20 03:13:00,64.8,63.9,30.05,SSE,167,0.0,0.0,97,0.00,,,0.00,Wunderground v.1.15,2013-06-20 07:13:00,
2013-06-20 03:18:00,64.7,63.8,30.06,SSE,167,0.0,0.0,97,0.00,,,0.00,Wunderground v.1.15,2013-06-20 07:18:00,
2013-06-20 03:23:00,64.6,63.7,30.06,SSE,167,0.0,0.0,97,0.00,,,0.00,Wunderground v.1.15,2013-06-20 07:23:00,
2013-06-20 03:28:00,64.5,63.6,30.06,SSE,167,0.0,0.0,97,0.00,,,0.00,Wunderground v.1.15,2013-06-20 07:28:00,
2013-06-20 03:33:00,64.4,63.5,30.06,SSE,167,0.0,0.0,97,0.00,,,0.00,Wunderground v.1.15,2013-06-20 07:33:00,
2013-06-20 03:38:00,64.3,63.4,30.06,SSE,167,0.0,0.0,97,0.00,,,0.00,Wunderground v.1.15,2013-06-20 07:38:00,
2013-06-20 03:43:00,64.2,63.3,30.06,SSE,167,0.0,0.0,97,0.00,,,0.00,Wunderground v.1.15,2013-06-20 07:43:00,
2013-06-20 03:49:00,64.0,63.1,30.06,SSE,167,0.0,0.0,97,0.00,,,0.00,Wunderground v.1.15,2013-06-20 07:49:00,
2013-06-20 03:54:00,64.0,63.1,30.06,SSE,167,0.0,0.0,97,0.00,,,0.00,Wunderground v.1.15,2013-06-20 07:54:00,
2013-06-20 03:59:00,64.0,63.1,30.06,SSE,167,0.0,0.0,97,0.00,,,0.00,Wunderground v.1.15,2013-06-20 07:59:00,
2013-06-20 04:00:00,64.0,63.1,30.06,SSE,157,0.0,1.0,97,0.00,,,-99.99,WeatherLink 6.0.0,2013-06-20 08:00:00,
2013-06-20 04:04:00,63.9,63.0,30.06,SSE,167,0.0,0.0,97,0.00,,,0.00,Wunderground v.1.15,2013-06-20 08:04:00,
2013-06-20 04:09:00,63.9,63.0,30.06,SSE,167,0.0,0.0,97,0.00,,,0.00,Wunderground v.1.15,2013-06-20 08:09:00,
2013-06-20 04:14:00,63.8,62.9,30.07,SSE,167,0.0,0.0,97,0.00,,,0.00,Wunderground v.1.15,2013-06-20 08:14:00,
2013-06-20 04:19:00,63.8,62.9,30.07,SSE,167,0.0,0.0,97,0.00,,,0.00,Wunderground v.1.15,2013-06-20 08:19:00,
2013-06-20 04:24:00,63.8,62.9,30.07,SSE,167,0.0,0.0,97,0.00,,,0.00,Wunderground v.1.15,2013-06-20 08:24:00,
2013-06-20 04:29:00,63.9,63.0,30.07,SSE,167,0.0,0.0,97,0.00,,,0.00,Wunderground v.1.15,2013-06-20 08:29:00,
2013-06-20 04:34:00,64.0,63.4,30.07,SSE,167,0.0,0.0,98,0.00,,,0.00,Wunderground v.1.15,2013-06-20 08:34:00,
2013-06-20 04:39:00,64.2,63.6,30.07,SSE,167,0.0,0.0,98,0.00,,,0.00,Wunderground v.1.15,2013-06-20 08:39:00,
2013-06-20 04:44:00,64.4,63.8,30.07,SSE,167,0.0,0.0,98,0.00,,,0.00,Wunderground v.1.15,2013-06-20 08:44:00,
2013-06-20 04:49:00,64.5,63.9,30.07,SSE,167,0.0,0.0,98,0.00,,,0.00,Wunderground v.1.15,2013-06-20 08:49:00,
2013-06-20 04:54:00,64.6,64.0,30.07,SSE,167,0.0,0.0,98,0.00,,,0.00,Wunderground v.1.15,2013-06-20 08:54:00,
2013-06-20 04:59:00,64.7,64.1,30.08,SSE,167,0.0,0.0,98,0.00,,,0.00,Wunderground v.1.15,2013-06-20 08:59:00,
2013-06-20 05:00:00,64.7,64.1,30.08,North,-999,0.0,0.0,98,0.00,,,-99.99,WeatherLink 6.0.0,2013-06-20 09:00:00,
2013-06-20 05:04:00,64.7,64.1,30.08,SSE,167,0.0,0.0,98,0.00,,,0.00,Wunderground v.1.15,2013-06-20 09:04:00,
2013-06-20 05:09:00,64.8,64.2,30.08,SSE,167,0.0,0.0,98,0.00,,,0.00,Wunderground v.1.15,2013-06-20 09:09:00,
2013-06-20 05:14:00,64.9,64.3,30.08,SSE,167,0.0,0.0,98,0.00,,,0.00,Wunderground v.1.15,2013-06-20 09:14:00,
2013-06-20 05:19:00,64.9,64.3,30.08,SSE,167,0.0,0.0,98,0.00,,,0.00,Wunderground v.1.15,2013-06-20 09:19:00,
2013-06-20 05:24:00,65.1,64.5,30.08,SSE,167,0.0,0.0,98,0.00,,,0.00,Wunderground v.1.15,2013-06-20 09:24:00,
2013-06-20 05:29:00,65.2,64.6,30.08,SSE,167,0.0,0.0,98,0.00,,,0.00,Wunderground v.1.15,2013-06-20 09:29:00,
2013-06-20 05:34:00,65.2,64.6,30.09,SSE,167,0.0,0.0,98,0.00,,,0.00,Wunderground v.1.15,2013-06-20 09:34:00,
2013-06-20 05:39:00,65.3,64.7,30.09,SSE,167,0.0,0.0,98,0.00,,,0.00,Wunderground v.1.15,2013-06-20 09:39:00,
2013-06-20 05:44:00,65.4,64.8,30.09,SSE,167,0.0,0.0,98,0.00,,,0.00,Wunderground v.1.15,2013-06-20 09:44:00,
2013-06-20 05:49:00,65.4,64.8,30.09,SSE,167,0.0,0.0,98,0.00,,,0.00,Wunderground v.1.15,2013-06-20 09:49:00,
2013-06-20 05:54:00,65.3,64.7,30.10,SSE,167,0.0,0.0,98,0.00,,,0.00,Wunderground v.1.15,2013-06-20 09:54:00,
2013-06-20 05:59:00,65.3,64.7,30.10,SSE,167,0.0,0.0,98,0.00,,,0.00,Wunderground v.1.15,2013-06-20 09:59:00,
2013-06-20 06:04:00,65.3,64.7,30.10,SSE,167,0.0,0.0,98,0.00,,,0.00,Wunderground v.1.15,2013-06-20 10:04:00,
2013-06-20 06:09:00,65.2,64.6,30.10,SSE,167,0.0,0.0,98,0.00,,,0.00,Wunderground v.1.15,2013-06-20 10:09:00,
2013-06-20 06:14:00,65.2,64.6,30.10,SSE,167,0.0,0.0,98,0.00,,,0.00,Wunderground v.1.15,2013-06-20 10:14:00,
2013-06-20 06:19:00,65.2,64.6,30.10,SSE,167,0.0,0.0,98,0.00,,,0.00,Wunderground v.1.15,2013-06-20 10:19:00,
2013-06-20 06:24:00,65.1,64.5,30.10,SSE,167,0.0,0.0,98,0.00,,,0.00,Wunderground v.1.15,2013-06-20 10:24:00,
2013-06-20 06:29:00,65.1,64.5,30.10,SSE,167,0.0,0.0,98,0.00,,,0.00,Wunderground v.1.15,2013-06-20 10:29:00,
2013-06-20 06:30:00,65.1,64.5,30.10,North,-999,0.0,0.0,98,0.00,,,-99.99,WeatherLink 6.0.0,2013-06-20 10:30:00,
2013-06-20 06:34:00,65.2,64.6,30.10,SSE,167,0.0,0.0,98,0.00,,,0.00,Wunderground v.1.15,2013-06-20 10:34:00,
2013-06-20 06:39:00,65.3,64.7,30.11,SSE,167,0.0,0.0,98,0.00,,,0.00,Wunderground v.1.15,2013-06-20 10:39:00,
2013-06-20 06:44:00,65.4,64.8,30.11,SSE,167,0.0,0.0,98,0.00,,,0.00,Wunderground v.1.15,2013-06-20 10:44:00,
2013-06-20 06:49:00,65.5,64.9,30.11,SSE,167,0.0,0.0,98,0.00,,,0.00,Wunderground v.1.15,2013-06-20 10:49:00,
2013-06-20 06:54:00,65.6,65.0,30.11,SSE,167,0.0,0.0,98,0.00,,,0.00,Wunderground v.1.15,2013-06-20 10:54:00,
2013-06-20 06:59:00,65.7,65.1,30.11,SSE,165,0.0,0.0,98,0.00,,,0.00,Wunderground v.1.15,2013-06-20 10:59:00,
2013-06-20 07:04:00,65.8,65.2,30.12,SSE,165,0.0,0.0,98,0.00,,,0.00,Wunderground v.1.15,2013-06-20 11:04:00,
2013-06-20 07:09:00,65.9,65.3,30.12,SSE,166,0.0,0.0,98,0.00,,,0.00,Wunderground v.1.15,2013-06-20 11:09:00,
2013-06-20 07:14:00,65.9,65.3,30.12,SSE,166,0.0,0.0,98,0.00,,,0.00,Wunderground v.1.15,2013-06-20 11:14:00,
2013-06-20 07:19:00,66.1,65.5,30.12,SSE,165,0.0,0.0,98,0.00,,,0.00,Wunderground v.1.15,2013-06-20 11:19:00,
2013-06-20 07:24:00,66.2,65.6,30.13,SSE,166,0.0,0.0,98,0.00,,,0.00,Wunderground v.1.15,2013-06-20 11:24:00,
2013-06-20 07:29:00,66.3,65.7,30.13,SSE,166,0.0,0.0,98,0.00,,,0.00,Wunderground v.1.15,2013-06-20 11:29:00,
2013-06-20 07:35:00,66.4,65.8,30.13,SSE,166,0.0,2.0,98,0.00,,,0.00,Wunderground v.1.15,2013-06-20 11:35:00,
2013-06-20 07:40:00,66.5,65.6,30.13,SSE,166,0.0,0.0,97,0.00,,,0.00,Wunderground v.1.15,2013-06-20 11:40:00,
2013-06-20 07:44:00,66.5,65.6,30.13,SSE,166,0.0,2.0,97,0.00,,,0.00,Wunderground v.1.15,2013-06-20 11:44:00,
2013-06-20 07:50:00,66.6,65.7,30.14,SSE,165,0.0,0.0,97,0.00,,,0.00,Wunderground v.1.15,2013-06-20 11:50:00,
2013-06-20 07:55:00,66.7,65.8,30.14,SSE,166,0.0,1.0,97,0.00,,,0.00,Wunderground v.1.15,2013-06-20 11:55:00,
2013-06-20 07:59:00,66.7,65.8,30.14,ESE,119,0.0,0.0,97,0.00,,,0.00,Wunderground v.1.15,2013-06-20 11:59:00,
2013-06-20 08:05:00,66.6,65.7,30.14,ESE,111,0.0,5.0,97,0.00,,,0.00,Wunderground v.1.15,2013-06-20 12:05:00,
2013-06-20 08:10:00,66.7,65.8,30.14,ESE,111,0.0,1.0,97,0.00,,,0.00,Wunderground v.1.15,2013-06-20 12:10:00,
2013-06-20 08:15:00,67.0,66.1,30.14,ESE,113,3.0,4.0,97,0.00,,,0.00,Wunderground v.1.15,2013-06-20 12:15:00,
2013-06-20 08:20:00,67.3,66.4,30.14,ESE,115,1.0,1.0,97,0.00,,,0.00,Wunderground v.1.15,2013-06-20 12:20:00,
2013-06-20 08:25:00,67.6,66.4,30.14,ESE,115,0.0,4.0,96,0.00,,,0.00,Wunderground v.1.15,2013-06-20 12:25:00,
2013-06-20 08:30:00,67.8,66.6,30.15,ESE,114,0.0,0.0,96,0.00,,,0.00,Wunderground v.1.15,2013-06-20 12:30:00,
2013-06-20 08:35:00,68.0,66.5,30.15,ESE,115,0.0,0.0,95,0.00,,,0.00,Wunderground v.1.15,2013-06-20 12:35:00,
2013-06-20 08:40:00,68.1,66.6,30.15,ESE,115,0.0,0.0,95,0.00,,,0.00,Wunderground v.1.15,2013-06-20 12:40:00,
2013-06-20 08:45:00,68.2,66.7,30.15,ESE,115,0.0,2.0,95,0.00,,,0.00,Wunderground v.1.15,2013-06-20 12:45:00,
2013-06-20 08:50:00,68.4,66.6,30.16,ESE,114,1.0,2.0,94,0.00,,,0.00,Wunderground v.1.15,2013-06-20 12:50:00,
2013-06-20 08:55:00,68.4,66.3,30.16,ESE,109,2.0,6.0,93,0.00,,,0.00,Wunderground v.1.15,2013-06-20 12:55:00,
2013-06-20 09:00:00,68.4,66.3,30.16,ESE,116,1.0,2.0,93,0.00,,,0.00,Wunderground v.1.15,2013-06-20 13:00:00,
2013-06-20 09:05:00,68.5,66.4,30.16,ESE,115,0.0,3.0,93,0.00,,,0.00,Wunderground v.1.15,2013-06-20 13:05:00,
2013-06-20 09:10:00,68.6,66.2,30.16,SE,132,0.0,2.0,92,0.00,,,0.00,Wunderground v.1.15,2013-06-20 13:10:00,
2013-06-20 09:15:00,68.7,66.3,30.16,ESE,114,2.0,3.0,92,0.00,,,0.00,Wunderground v.1.15,2013-06-20 13:15:00,
2013-06-20 09:20:00,68.7,66.3,30.16,East,97,0.0,1.0,92,0.00,,,0.00,Wunderground v.1.15,2013-06-20 13:20:00,
2013-06-20 09:25:00,68.9,66.5,30.16,East,98,0.0,2.0,92,0.00,,,0.00,Wunderground v.1.15,2013-06-20 13:25:00,
2013-06-20 09:30:00,69.2,66.5,30.16,ESE,102,0.0,1.0,91,0.00,,,0.00,Wunderground v.1.15,2013-06-20 13:30:00,
2013-06-20 09:35:00,69.8,67.1,30.16,ESE,103,2.0,3.0,91,0.00,,,0.00,Wunderground v.1.15,2013-06-20 13:35:00,
2013-06-20 09:40:00,70.3,67.2,30.16,ESE,105,3.0,3.0,90,0.00,,,0.00,Wunderground v.1.15,2013-06-20 13:40:00,
2013-06-20 09:45:00,70.2,66.8,30.16,ESE,119,0.0,5.0,89,0.00,,,0.00,Wunderground v.1.15,2013-06-20 13:45:00,
2013-06-20 09:50:00,70.2,66.8,30.16,ESE,105,4.0,5.0,89,0.00,,,0.00,Wunderground v.1.15,2013-06-20 13:50:00,
2013-06-20 09:55:00,70.0,66.6,30.16,ESE,111,0.0,5.0,89,0.00,,,0.00,Wunderground v.1.15,2013-06-20 13:55:00,
2013-06-20 10:00:00,69.9,66.8,30.16,ESE,111,0.0,2.0,90,0.00,,,0.00,Wunderground v.1.15,2013-06-20 14:00:00,
2013-06-20 10:05:00,69.8,66.7,30.16,ESE,111,2.0,2.0,90,0.00,,,0.00,Wunderground v.1.15,2013-06-20 14:05:00,
2013-06-20 10:10:00,69.6,66.5,30.16,ESE,110,1.0,2.0,90,0.00,,,0.00,Wunderground v.1.15,2013-06-20 14:10:00,
2013-06-20 10:15:00,69.6,66.9,30.17,SE,127,1.0,4.0,91,0.00,,,0.00,Wunderground v.1.15,2013-06-20 14:15:00,
2013-06-20 10:20:00,69.5,66.8,30.16,East,101,0.0,1.0,91,0.00,,,0.00,Wunderground v.1.15,2013-06-20 14:20:00,
2013-06-20 10:25:00,70.0,67.3,30.16,East,101,0.0,2.0,91,0.00,,,0.00,Wunderground v.1.15,2013-06-20 14:25:00,
2013-06-20 10:30:00,70.6,67.2,30.16,East,101,0.0,3.0,89,0.00,,,0.00,Wunderground v.1.15,2013-06-20 14:30:00,
2013-06-20 10:35:00,70.9,67.2,30.17,ESE,104,0.0,5.0,88,0.00,,,0.00,Wunderground v.1.15,2013-06-20 14:35:00,
2013-06-20 10:40:00,71.1,67.4,30.17,ESE,104,0.0,1.0,88,0.00,,,0.00,Wunderground v.1.15,2013-06-20 14:40:00,
2013-06-20 10:45:00,71.5,67.4,30.17,ESE,109,3.0,4.0,87,0.00,,,0.00,Wunderground v.1.15,2013-06-20 14:45:00,
2013-06-20 10:50:00,71.9,68.2,30.17,ESE,107,2.0,2.0,88,0.00,,,0.00,Wunderground v.1.15,2013-06-20 14:50:00,
2013-06-20 10:55:00,72.9,68.1,30.17,ESE,107,1.0,3.0,85,0.00,,,0.00,Wunderground v.1.15,2013-06-20 14:55:00,
2013-06-20 11:00:00,73.5,68.0,30.17,ESE,106,0.0,1.0,83,0.00,,,0.00,Wunderground v.1.15,2013-06-20 15:00:00,
2013-06-20 11:05:00,73.9,68.4,30.17,ESE,106,0.0,3.0,83,0.00,,,0.00,Wunderground v.1.15,2013-06-20 15:05:00,
2013-06-20 11:10:00,74.2,68.7,30.17,ESE,111,0.0,1.0,83,0.00,,,0.00,Wunderground v.1.15,2013-06-20 15:10:00,
2013-06-20 11:15:00,74.5,68.6,30.16,ESE,121,0.0,1.0,82,0.00,,,0.00,Wunderground v.1.15,2013-06-20 15:15:00,
2013-06-20 11:20:00,75.1,69.2,30.16,ESE,121,0.0,1.0,82,0.00,,,0.00,Wunderground v.1.15,2013-06-20 15:20:00,
2013-06-20 11:26:00,75.6,69.0,30.16,ESE,121,0.0,2.0,80,0.00,,,0.00,Wunderground v.1.15,2013-06-20 15:26:00,
2013-06-20 11:31:00,75.9,68.9,30.16,ESE,121,2.0,3.0,79,0.00,,,0.00,Wunderground v.1.15,2013-06-20 15:31:00,
2013-06-20 11:36:00,75.7,69.1,30.16,ESE,121,0.0,3.0,80,0.00,,,0.00,Wunderground v.1.15,2013-06-20 15:36:00,
2013-06-20 11:41:00,76.2,68.8,30.17,ESE,111,2.0,4.0,78,0.00,,,0.00,Wunderground v.1.15,2013-06-20 15:41:00,
2013-06-20 11:46:00,76.4,69.0,30.17,ESE,122,0.0,4.0,78,0.00,,,0.00,Wunderground v.1.15,2013-06-20 15:46:00,
2013-06-20 11:51:00,76.6,68.8,30.16,ESE,118,3.0,3.0,77,0.00,,,0.00,Wunderground v.1.15,2013-06-20 15:51:00,
2013-06-20 11:56:00,76.2,68.5,30.17,ESE,109,3.0,6.0,77,0.00,,,0.00,Wunderground v.1.15,2013-06-20 15:56:00,
2013-06-20 12:01:00,76.4,69.0,30.17,NE,48,1.0,2.0,78,0.00,,,0.00,Wunderground v.1.15,2013-06-20 16:01:00,
2013-06-20 12:06:00,76.5,68.7,30.17,East,98,0.0,4.0,77,0.00,,,0.00,Wunderground v.1.15,2013-06-20 16:06:00,
2013-06-20 12:11:00,77.1,69.3,30.16,East,93,0.0,0.0,77,0.00,,,0.00,Wunderground v.1.15,2013-06-20 16:11:00,
2013-06-20 12:16:00,77.1,68.6,30.16,ESE,115,3.0,5.0,75,0.00,,,0.00,Wunderground v.1.15,2013-06-20 16:16:00,
2013-06-20 12:21:00,77.4,69.2,30.16,ESE,114,0.0,1.0,76,0.00,,,0.00,Wunderground v.1.15,2013-06-20 16:21:00,
2013-06-20 12:26:00,78.5,69.5,30.16,ESE,117,4.0,5.0,74,0.00,,,0.00,Wunderground v.1.15,2013-06-20 16:26:00,
2013-06-20 12:31:00,79.0,69.2,30.16,ESE,104,0.0,4.0,72,0.00,,,0.00,Wunderground v.1.15,2013-06-20 16:31:00,
2013-06-20 12:36:00,78.9,68.7,30.16,ESE,114,9.0,9.0,71,0.00,,,0.00,Wunderground v.1.15,2013-06-20 16:36:00,
2013-06-20 12:41:00,77.4,68.1,30.16,ESE,116,2.0,3.0,73,0.00,,,0.00,Wunderground v.1.15,2013-06-20 16:41:00,
2013-06-20 12:47:00,77.7,68.7,30.16,East,101,0.0,3.0,74,0.00,,,0.00,Wunderground v.1.15,2013-06-20 16:47:00,
2013-06-20 12:52:00,78.5,69.1,30.16,SE,129,3.0,3.0,73,0.00,,,0.00,Wunderground v.1.15,2013-06-20 16:52:00,
2013-06-20 12:57:00,78.7,69.3,30.16,SE,128,1.0,5.0,73,0.00,,,0.00,Wunderground v.1.15,2013-06-20 16:57:00,
2013-06-20 13:02:00,79.0,68.0,30.16,ESE,118,3.0,7.0,69,0.00,,,0.00,Wunderground v.1.15,2013-06-20 17:02:00,
2013-06-20 13:07:00,78.9,68.3,30.16,SE,137,5.0,9.0,70,0.00,,,0.00,Wunderground v.1.15,2013-06-20 17:07:00,
2013-06-20 13:12:00,78.2,68.4,30.16,SSE,153,3.0,7.0,72,0.00,,,0.00,Wunderground v.1.15,2013-06-20 17:12:00,
2013-06-20 13:17:00,78.1,68.3,30.16,East,92,2.0,7.0,72,0.00,,,0.00,Wunderground v.1.15,2013-06-20 17:17:00,
2013-06-20 19:58:00,76.8,66.7,30.11,ESE,120,1.0,1.0,71,0.00,,,0.00,Wunderground v.1.15,2013-06-20 23:58:00,
2013-06-20 20:04:00,76.6,66.9,30.11,ESE,119,0.0,1.0,72,0.00,,,0.00,Wunderground v.1.15,2013-06-21 00:04:00,
2013-06-20 20:09:00,76.4,66.7,30.11,ESE,119,0.0,1.0,72,0.00,,,0.00,Wunderground v.1.15,2013-06-21 00:09:00,
2013-06-20 20:14:00,76.2,67.3,30.11,ESE,120,0.0,0.0,74,0.00,,,0.00,Wunderground v.1.15,2013-06-21 00:14:00,
2013-06-20 20:24:00,74.9,66.8,30.11,ESE,119,0.0,0.0,76,0.00,,,0.00,Wunderground v.1.15,2013-06-21 00:24:00,
2013-06-20 20:30:00,74.5,66.8,30.11,ESE,120,0.0,0.0,77,0.00,,,0.00,Wunderground v.1.15,2013-06-21 00:30:00,
2013-06-20 20:35:00,74.1,67.2,30.12,ESE,120,0.0,0.0,79,0.00,,,0.00,Wunderground v.1.15,2013-06-21 00:35:00,
2013-06-20 20:40:00,73.7,67.1,30.12,ESE,120,0.0,0.0,80,0.00,,,0.00,Wunderground v.1.15,2013-06-21 00:40:00,
2013-06-20 20:45:00,73.3,67.1,30.12,ESE,120,0.0,0.0,81,0.00,,,0.00,Wunderground v.1.15,2013-06-21 00:45:00,
2013-06-20 20:50:00,73.0,67.2,30.12,ESE,120,0.0,0.0,82,0.00,,,0.00,Wunderground v.1.15,2013-06-21 00:50:00,
2013-06-20 20:55:00,72.7,67.2,30.12,ESE,119,0.0,0.0,83,0.00,,,0.00,Wunderground v.1.15,2013-06-21 00:55:00,
2013-06-20 21:00:00,72.2,67.4,30.13,ESE,120,0.0,0.0,85,0.00,,,0.00,Wunderground v.1.15,2013-06-21 01:00:00,
2013-06-20 21:05:00,71.6,67.2,30.13,ESE,120,0.0,0.0,86,0.00,,,0.00,Wunderground v.1.15,2013-06-21 01:05:00,
2013-06-20 21:10:00,71.3,67.2,30.13,ESE,119,0.0,0.0,87,0.00,,,0.00,Wunderground v.1.15,2013-06-21 01:10:00,
2013-06-20 21:16:00,71.0,67.3,30.13,ESE,119,0.0,0.0,88,0.00,,,0.00,Wunderground v.1.15,2013-06-21 01:16:00,
2013-06-20 21:20:00,70.7,67.0,30.14,ESE,120,0.0,0.0,88,0.00,,,0.00,Wunderground v.1.15,2013-06-21 01:20:00,
2013-06-20 21:25:00,70.4,67.0,30.14,ESE,120,0.0,0.0,89,0.00,,,0.00,Wunderground v.1.15,2013-06-21 01:25:00,
2013-06-20 21:31:00,70.2,66.8,30.14,ESE,119,0.0,0.0,89,0.00,,,0.00,Wunderground v.1.15,2013-06-21 01:31:00,
2013-06-20 21:36:00,70.0,66.6,30.14,ESE,120,0.0,0.0,89,0.00,,,0.00,Wunderground v.1.15,2013-06-21 01:36:00,
2013-06-20 21:41:00,69.9,66.8,30.14,ESE,120,0.0,0.0,90,0.00,,,0.00,Wunderground v.1.15,2013-06-21 01:41:00,
2013-06-20 21:46:00,69.7,66.6,30.15,ESE,120,0.0,0.0,90,0.00,,,0.00,Wunderground v.1.15,2013-06-21 01:46:00,
2013-06-20 21:51:00,69.5,66.4,30.15,ESE,119,0.0,0.0,90,0.00,,,0.00,Wunderground v.1.15,2013-06-21 01:51:00,
2013-06-20 21:56:00,69.4,66.3,30.15,ESE,120,0.0,0.0,90,0.00,,,0.00,Wunderground v.1.15,2013-06-21 01:56:00,
2013-06-20 22:01:00,69.2,66.1,30.16,ESE,120,0.0,0.0,90,0.00,,,0.00,Wunderground v.1.15,2013-06-21 02:01:00,
2013-06-20 22:06:00,69.1,66.4,30.16,ESE,119,0.0,0.0,91,0.00,,,0.00,Wunderground v.1.15,2013-06-21 02:06:00,
2013-06-20 22:11:00,69.0,66.3,30.16,ESE,119,0.0,0.0,91,0.00,,,0.00,Wunderground v.1.15,2013-06-21 02:11:00,
2013-06-20 22:16:00,68.9,66.2,30.16,ESE,120,0.0,0.0,91,0.00,,,0.00,Wunderground v.1.15,2013-06-21 02:16:00,
2013-06-20 22:21:00,68.7,66.0,30.16,ESE,119,0.0,0.0,91,0.00,,,0.00,Wunderground v.1.15,2013-06-21 02:21:00,
2013-06-20 22:26:00,68.6,65.9,30.16,ESE,119,0.0,0.0,91,0.00,,,0.00,Wunderground v.1.15,2013-06-21 02:26:00,
2013-06-20 22:31:00,68.5,66.1,30.16,ESE,120,0.0,0.0,92,0.00,,,0.00,Wunderground v.1.15,2013-06-21 02:31:00,
2013-06-20 22:36:00,68.5,66.1,30.16,ESE,119,0.0,0.0,92,0.00,,,0.00,Wunderground v.1.15,2013-06-21 02:36:00,
2013-06-20 22:41:00,68.3,65.9,30.16,ESE,119,0.0,0.0,92,0.00,,,0.00,Wunderground v.1.15,2013-06-21 02:41:00,
2013-06-20 22:46:00,68.3,65.9,30.17,ESE,120,0.0,0.0,92,0.00,,,0.00,Wunderground v.1.15,2013-06-21 02:46:00,
2013-06-20 22:51:00,68.2,65.8,30.17,ESE,119,0.0,0.0,92,0.00,,,0.00,Wunderground v.1.15,2013-06-21 02:51:00,
2013-06-20 22:56:00,68.1,65.7,30.17,ESE,119,0.0,0.0,92,0.00,,,0.00,Wunderground v.1.15,2013-06-21 02:56:00,
2013-06-20 23:01:00,67.9,65.5,30.17,ESE,120,0.0,0.0,92,0.00,,,0.00,Wunderground v.1.15,2013-06-21 03:01:00,
2013-06-20 23:06:00,67.8,65.4,30.17,ESE,120,0.0,0.0,92,0.00,,,0.00,Wunderground v.1.15,2013-06-21 03:06:00,
2013-06-20 23:11:00,67.6,65.5,30.17,ESE,120,0.0,0.0,93,0.00,,,0.00,Wunderground v.1.15,2013-06-21 03:11:00,
2013-06-20 23:16:00,67.5,65.4,30.17,ESE,119,0.0,0.0,93,0.00,,,0.00,Wunderground v.1.15,2013-06-21 03:16:00,
2013-06-20 23:21:00,67.4,65.3,30.17,ESE,120,0.0,0.0,93,0.00,,,0.00,Wunderground v.1.15,2013-06-21 03:21:00,
2013-06-20 23:26:00,67.3,65.2,30.17,ESE,119,0.0,0.0,93,0.00,,,0.00,Wunderground v.1.15,2013-06-21 03:26:00,
2013-06-20 23:31:00,67.2,65.1,30.17,ESE,119,0.0,0.0,93,0.00,,,0.00,Wunderground v.1.15,2013-06-21 03:31:00,
2013-06-20 23:36:00,67.1,65.3,30.17,ESE,119,0.0,0.0,94,0.00,,,0.00,Wunderground v.1.15,2013-06-21 03:36:00,
2013-06-20 23:41:00,67.0,65.2,30.17,ESE,119,0.0,0.0,94,0.00,,,0.00,Wunderground v.1.15,2013-06-21 03:41:00,
2013-06-20 23:46:00,67.0,65.2,30.17,ESE,120,0.0,0.0,94,0.00,,,0.00,Wunderground v.1.15,2013-06-21 03:46:00,
2013-06-20 23:51:00,66.9,65.1,30.17,ESE,120,0.0,0.0,94,0.00,,,0.00,Wunderground v.1.15,2013-06-21 03:51:00,
2013-06-20 23:56:00,66.9,65.1,30.17,ESE,119,0.0,0.0,94,0.00,,,0.00,Wunderground v.1.15,2013-06-21 03:56:00,